sensor_id;sensor_type;location;lat;lon;timestamp;temperature;humidity
47779;DHT22;33538;48.432;11.350;2022-08-20T00:01:08;20.50;98.60
47779;DHT22;33538;48.432;11.350;2022-08-20T00:03:39;20.50;98.40
47779;DHT22;33538;48.432;11.350;2022-08-20T00:06:08;20.50;99.20
47779;DHT22;33538;48.432;11.350;2022-08-20T00:08:35;20.50;98.70
47779;DHT22;33538;48.432;11.350;2022-08-20T00:11:04;20.50;98.90
47779;DHT22;33538;48.432;11.350;2022-08-20T00:13:34;20.50;98.60
47779;DHT22;33538;48.432;11.350;2022-08-20T00:16:02;20.50;98.40
47779;DHT22;33538;48.432;11.350;2022-08-20T00:18:29;20.50;99.00
47779;DHT22;33538;48.432;11.350;2022-08-20T00:20:57;20.50;98.80
47779;DHT22;33538;48.432;11.350;2022-08-20T00:23:24;20.50;98.90
47779;DHT22;33538;48.432;11.350;2022-08-20T00:25:51;20.50;98.80
47779;DHT22;33538;48.432;11.350;2022-08-20T00:28:19;20.40;99.00
47779;DHT22;33538;48.432;11.350;2022-08-20T00:30:47;20.50;98.80
47779;DHT22;33538;48.432;11.350;2022-08-20T00:33:16;20.50;98.40
47779;DHT22;33538;48.432;11.350;2022-08-20T00:35:46;20.50;98.70
47779;DHT22;33538;48.432;11.350;2022-08-20T00:38:15;20.50;98.40
47779;DHT22;33538;48.432;11.350;2022-08-20T00:40:44;20.50;98.50
47779;DHT22;33538;48.432;11.350;2022-08-20T00:43:29;20.50;98.20
47779;DHT22;33538;48.432;11.350;2022-08-20T00:45:58;20.50;98.00
47779;DHT22;33538;48.432;11.350;2022-08-20T00:48:27;20.50;99.30
47779;DHT22;33538;48.432;11.350;2022-08-20T00:50:58;20.40;98.70
47779;DHT22;33538;48.432;11.350;2022-08-20T00:53:28;20.40;99.00
47779;DHT22;33538;48.432;11.350;2022-08-20T00:55:55;20.40;99.30
47779;DHT22;33538;48.432;11.350;2022-08-20T00:58:22;20.40;99.30
47779;DHT22;33538;48.432;11.350;2022-08-20T01:00:50;20.40;99.00
47779;DHT22;33538;48.432;11.350;2022-08-20T01:03:19;20.40;98.70
47779;DHT22;33538;48.432;11.350;2022-08-20T01:05:48;20.40;98.50
47779;DHT22;33538;48.432;11.350;2022-08-20T01:08:16;20.40;98.70
47779;DHT22;33538;48.432;11.350;2022-08-20T01:10:46;20.30;99.20
47779;DHT22;33538;48.432;11.350;2022-08-20T01:13:17;20.30;99.40
47779;DHT22;33538;48.432;11.350;2022-08-20T01:15:46;20.20;99.40
47779;DHT22;33538;48.432;11.350;2022-08-20T01:18:16;20.30;99.90
47779;DHT22;33538;48.432;11.350;2022-08-20T01:20:48;20.20;99.80
47779;DHT22;33538;48.432;11.350;2022-08-20T01:23:20;20.30;99.50
47779;DHT22;33538;48.432;11.350;2022-08-20T01:25:51;20.30;99.50
47779;DHT22;33538;48.432;11.350;2022-08-20T01:28:22;20.30;99.90
47779;DHT22;33538;48.432;11.350;2022-08-20T01:30:50;20.30;99.10
47779;DHT22;33538;48.432;11.350;2022-08-20T01:33:19;20.30;98.90
47779;DHT22;33538;48.432;11.350;2022-08-20T01:35:47;20.30;99.90
47779;DHT22;33538;48.432;11.350;2022-08-20T01:38:13;20.30;99.50
47779;DHT22;33538;48.432;11.350;2022-08-20T01:41:03;20.30;99.40
47779;DHT22;33538;48.432;11.350;2022-08-20T01:43:33;20.30;99.40
47779;DHT22;33538;48.432;11.350;2022-08-20T01:46:03;20.30;99.90
47779;DHT22;33538;48.432;11.350;2022-08-20T01:48:30;20.30;99.60
47779;DHT22;33538;48.432;11.350;2022-08-20T01:51:01;20.30;99.30
47779;DHT22;33538;48.432;11.350;2022-08-20T01:53:31;20.30;99.90
47779;DHT22;33538;48.432;11.350;2022-08-20T01:56:00;20.30;99.90
47779;DHT22;33538;48.432;11.350;2022-08-20T01:58:27;20.30;99.90
47779;DHT22;33538;48.432;11.350;2022-08-20T02:00:54;20.30;99.40
47779;DHT22;33538;48.432;11.350;2022-08-20T02:03:22;20.20;99.90
47779;DHT22;33538;48.432;11.350;2022-08-20T02:05:49;20.30;99.70
47779;DHT22;33538;48.432;11.350;2022-08-20T02:08:15;20.30;99.70
47779;DHT22;33538;48.432;11.350;2022-08-20T02:10:42;20.20;99.80
47779;DHT22;33538;48.432;11.350;2022-08-20T02:13:11;20.30;99.70
47779;DHT22;33538;48.432;11.350;2022-08-20T02:15:38;20.30;99.80
47779;DHT22;33538;48.432;11.350;2022-08-20T02:18:12;20.30;99.70
47779;DHT22;33538;48.432;11.350;2022-08-20T02:20:39;20.30;99.80
47779;DHT22;33538;48.432;11.350;2022-08-20T02:23:07;20.30;99.60
47779;DHT22;33538;48.432;11.350;2022-08-20T02:25:36;20.30;99.80
47779;DHT22;33538;48.432;11.350;2022-08-20T02:28:06;20.30;99.60
47779;DHT22;33538;48.432;11.350;2022-08-20T02:30:37;20.20;99.70
47779;DHT22;33538;48.432;11.350;2022-08-20T02:33:08;20.30;99.80
47779;DHT22;33538;48.432;11.350;2022-08-20T02:35:36;20.20;99.70
47779;DHT22;33538;48.432;11.350;2022-08-20T02:38:04;20.20;99.50
47779;DHT22;33538;48.432;11.350;2022-08-20T02:40:31;20.20;99.60
47779;DHT22;33538;48.432;11.350;2022-08-20T02:42:58;20.20;99.40
47779;DHT22;33538;48.432;11.350;2022-08-20T02:45:25;20.20;99.40
47779;DHT22;33538;48.432;11.350;2022-08-20T02:47:54;20.20;99.70
47779;DHT22;33538;48.432;11.350;2022-08-20T02:50:22;20.20;99.60
47779;DHT22;33538;48.432;11.350;2022-08-20T02:52:49;20.20;99.90
47779;DHT22;33538;48.432;11.350;2022-08-20T02:55:19;20.20;99.60
47779;DHT22;33538;48.432;11.350;2022-08-20T02:57:54;20.20;99.90
47779;DHT22;33538;48.432;11.350;2022-08-20T03:00:25;20.20;99.40
47779;DHT22;33538;48.432;11.350;2022-08-20T03:02:53;20.20;99.90
47779;DHT22;33538;48.432;11.350;2022-08-20T03:05:20;20.20;99.60
47779;DHT22;33538;48.432;11.350;2022-08-20T03:07:49;20.20;99.40
47779;DHT22;33538;48.432;11.350;2022-08-20T03:10:16;20.20;99.50
47779;DHT22;33538;48.432;11.350;2022-08-20T03:12:43;20.20;99.50
47779;DHT22;33538;48.432;11.350;2022-08-20T03:15:10;20.20;99.30
47779;DHT22;33538;48.432;11.350;2022-08-20T03:17:43;20.10;99.10
47779;DHT22;33538;48.432;11.350;2022-08-20T03:20:12;20.10;99.80
47779;DHT22;33538;48.432;11.350;2022-08-20T03:22:39;20.20;99.80
47779;DHT22;33538;48.432;11.350;2022-08-20T03:25:06;20.10;99.50
47779;DHT22;33538;48.432;11.350;2022-08-20T03:27:33;20.10;99.20
47779;DHT22;33538;48.432;11.350;2022-08-20T03:30:03;20.10;99.10
47779;DHT22;33538;48.432;11.350;2022-08-20T03:32:30;20.10;99.80
47779;DHT22;33538;48.432;11.350;2022-08-20T03:34:57;20.10;99.60
47779;DHT22;33538;48.432;11.350;2022-08-20T03:37:28;20.10;99.90
47779;DHT22;33538;48.432;11.350;2022-08-20T03:39:55;20.10;99.90
47779;DHT22;33538;48.432;11.350;2022-08-20T03:42:22;20.10;99.60
47779;DHT22;33538;48.432;11.350;2022-08-20T03:44:49;20.10;99.30
47779;DHT22;33538;48.432;11.350;2022-08-20T03:47:25;20.10;99.80
47779;DHT22;33538;48.432;11.350;2022-08-20T03:49:57;20.10;99.60
47779;DHT22;33538;48.432;11.350;2022-08-20T03:52:25;20.10;99.90
47779;DHT22;33538;48.432;11.350;2022-08-20T03:54:52;20.10;99.70
47779;DHT22;33538;48.432;11.350;2022-08-20T03:57:19;20.10;99.30
47779;DHT22;33538;48.432;11.350;2022-08-20T03:59:45;20.10;99.90
47779;DHT22;33538;48.432;11.350;2022-08-20T04:02:20;20.10;99.70
47779;DHT22;33538;48.432;11.350;2022-08-20T04:04:47;20.10;99.90
47779;DHT22;33538;48.432;11.350;2022-08-20T04:07:16;20.10;99.70
47779;DHT22;33538;48.432;11.350;2022-08-20T04:09:44;20.10;99.60
47779;DHT22;33538;48.432;11.350;2022-08-20T04:12:11;20.10;99.90
47779;DHT22;33538;48.432;11.350;2022-08-20T04:14:38;20.10;99.60
47779;DHT22;33538;48.432;11.350;2022-08-20T04:17:07;20.10;99.60
47779;DHT22;33538;48.432;11.350;2022-08-20T04:19:34;20.10;99.40
47779;DHT22;33538;48.432;11.350;2022-08-20T04:22:02;20.10;99.80
47779;DHT22;33538;48.432;11.350;2022-08-20T04:24:28;20.10;99.90
47779;DHT22;33538;48.432;11.350;2022-08-20T04:27:00;20.10;99.70
47779;DHT22;33538;48.432;11.350;2022-08-20T04:29:27;20.10;99.60
47779;DHT22;33538;48.432;11.350;2022-08-20T04:31:58;20.00;99.80
47779;DHT22;33538;48.432;11.350;2022-08-20T04:34:25;20.10;99.50
47779;DHT22;33538;48.432;11.350;2022-08-20T04:36:52;20.00;99.70
47779;DHT22;33538;48.432;11.350;2022-08-20T04:39:19;20.00;99.70
47779;DHT22;33538;48.432;11.350;2022-08-20T04:41:46;20.00;99.30
47779;DHT22;33538;48.432;11.350;2022-08-20T04:44:14;20.00;99.40
47779;DHT22;33538;48.432;11.350;2022-08-20T04:46:42;20.00;99.40
47779;DHT22;33538;48.432;11.350;2022-08-20T04:49:09;20.10;99.70
47779;DHT22;33538;48.432;11.350;2022-08-20T04:51:35;20.00;99.70
47779;DHT22;33538;48.432;11.350;2022-08-20T04:54:02;20.00;99.20
47779;DHT22;33538;48.432;11.350;2022-08-20T04:56:31;20.10;99.70
47779;DHT22;33538;48.432;11.350;2022-08-20T04:59:00;20.00;99.50
47779;DHT22;33538;48.432;11.350;2022-08-20T05:01:28;20.00;99.70
47779;DHT22;33538;48.432;11.350;2022-08-20T05:03:56;20.00;99.60
47779;DHT22;33538;48.432;11.350;2022-08-20T05:06:25;20.00;99.50
47779;DHT22;33538;48.432;11.350;2022-08-20T05:08:53;20.00;99.70
47779;DHT22;33538;48.432;11.350;2022-08-20T05:11:20;20.00;99.60
47779;DHT22;33538;48.432;11.350;2022-08-20T05:14:03;20.00;99.70
47779;DHT22;33538;48.432;11.350;2022-08-20T05:16:32;20.00;99.90
47779;DHT22;33538;48.432;11.350;2022-08-20T05:18:59;20.00;99.80
47779;DHT22;33538;48.432;11.350;2022-08-20T05:21:25;20.00;99.90
47779;DHT22;33538;48.432;11.350;2022-08-20T05:23:52;20.00;99.90
47779;DHT22;33538;48.432;11.350;2022-08-20T05:26:19;20.00;99.90
47779;DHT22;33538;48.432;11.350;2022-08-20T05:28:46;20.00;99.90
47779;DHT22;33538;48.432;11.350;2022-08-20T05:31:25;20.00;99.90
47779;DHT22;33538;48.432;11.350;2022-08-20T05:34:00;19.90;99.90
47779;DHT22;33538;48.432;11.350;2022-08-20T05:36:27;20.00;99.90
47779;DHT22;33538;48.432;11.350;2022-08-20T05:38:54;20.00;99.80
47779;DHT22;33538;48.432;11.350;2022-08-20T05:41:20;20.00;99.90
47779;DHT22;33538;48.432;11.350;2022-08-20T05:43:55;20.00;99.70
47779;DHT22;33538;48.432;11.350;2022-08-20T05:46:22;20.00;99.90
47779;DHT22;33538;48.432;11.350;2022-08-20T05:48:48;20.00;99.70
47779;DHT22;33538;48.432;11.350;2022-08-20T05:51:17;20.00;99.70
47779;DHT22;33538;48.432;11.350;2022-08-20T05:53:44;20.00;99.90
47779;DHT22;33538;48.432;11.350;2022-08-20T05:56:10;20.00;99.90
47779;DHT22;33538;48.432;11.350;2022-08-20T05:58:37;20.00;99.90
47779;DHT22;33538;48.432;11.350;2022-08-20T06:01:04;20.00;99.90
47779;DHT22;33538;48.432;11.350;2022-08-20T06:03:31;20.10;99.90
47779;DHT22;33538;48.432;11.350;2022-08-20T06:05:59;20.10;99.80
47779;DHT22;33538;48.432;11.350;2022-08-20T06:08:28;20.10;99.90
47779;DHT22;33538;48.432;11.350;2022-08-20T06:10:56;20.10;99.90
47779;DHT22;33538;48.432;11.350;2022-08-20T06:13:23;20.10;99.90
47779;DHT22;33538;48.432;11.350;2022-08-20T06:15:49;20.10;99.90
47779;DHT22;33538;48.432;11.350;2022-08-20T06:18:16;20.10;99.90
47779;DHT22;33538;48.432;11.350;2022-08-20T06:20:53;20.10;99.90
47779;DHT22;33538;48.432;11.350;2022-08-20T06:23:20;20.10;99.90
47779;DHT22;33538;48.432;11.350;2022-08-20T06:25:49;20.10;99.90
47779;DHT22;33538;48.432;11.350;2022-08-20T06:28:16;20.10;99.90
47779;DHT22;33538;48.432;11.350;2022-08-20T06:30:43;20.10;99.90
47779;DHT22;33538;48.432;11.350;2022-08-20T06:33:10;20.10;99.90
47779;DHT22;33538;48.432;11.350;2022-08-20T06:35:37;20.10;99.90
47779;DHT22;33538;48.432;11.350;2022-08-20T06:38:04;20.10;99.90
47779;DHT22;33538;48.432;11.350;2022-08-20T06:40:31;20.10;99.90
47779;DHT22;33538;48.432;11.350;2022-08-20T06:42:59;20.10;99.90
47779;DHT22;33538;48.432;11.350;2022-08-20T06:45:28;20.10;99.90
47779;DHT22;33538;48.432;11.350;2022-08-20T06:47:57;20.10;99.90
47779;DHT22;33538;48.432;11.350;2022-08-20T06:50:27;20.10;99.90
47779;DHT22;33538;48.432;11.350;2022-08-20T06:52:54;20.10;99.90
47779;DHT22;33538;48.432;11.350;2022-08-20T06:55:22;20.00;99.90
47779;DHT22;33538;48.432;11.350;2022-08-20T06:57:55;20.10;99.90
47779;DHT22;33538;48.432;11.350;2022-08-20T07:00:24;20.10;99.90
47779;DHT22;33538;48.432;11.350;2022-08-20T07:02:52;20.00;99.90
47779;DHT22;33538;48.432;11.350;2022-08-20T07:05:18;20.00;99.90
47779;DHT22;33538;48.432;11.350;2022-08-20T07:07:47;20.00;99.90
47779;DHT22;33538;48.432;11.350;2022-08-20T07:10:14;20.00;99.90
47779;DHT22;33538;48.432;11.350;2022-08-20T07:12:41;20.00;99.90
47779;DHT22;33538;48.432;11.350;2022-08-20T07:15:10;20.00;99.90
47779;DHT22;33538;48.432;11.350;2022-08-20T07:17:39;20.00;99.90
47779;DHT22;33538;48.432;11.350;2022-08-20T07:20:07;20.00;99.90
47779;DHT22;33538;48.432;11.350;2022-08-20T07:22:35;20.00;99.90
47779;DHT22;33538;48.432;11.350;2022-08-20T07:25:03;20.00;99.90
47779;DHT22;33538;48.432;11.350;2022-08-20T07:27:30;20.00;99.90
47779;DHT22;33538;48.432;11.350;2022-08-20T07:29:57;20.00;99.90
47779;DHT22;33538;48.432;11.350;2022-08-20T07:32:24;20.00;99.90
47779;DHT22;33538;48.432;11.350;2022-08-20T07:34:55;20.10;99.90
47779;DHT22;33538;48.432;11.350;2022-08-20T07:37:22;20.00;99.90
47779;DHT22;33538;48.432;11.350;2022-08-20T07:39:49;20.10;99.90
47779;DHT22;33538;48.432;11.350;2022-08-20T07:42:16;20.10;99.90
47779;DHT22;33538;48.432;11.350;2022-08-20T07:44:43;20.10;99.90
47779;DHT22;33538;48.432;11.350;2022-08-20T07:47:10;20.10;99.90
47779;DHT22;33538;48.432;11.350;2022-08-20T07:49:36;20.10;99.90
47779;DHT22;33538;48.432;11.350;2022-08-20T07:52:05;20.10;99.90
47779;DHT22;33538;48.432;11.350;2022-08-20T07:54:32;20.10;99.90
47779;DHT22;33538;48.432;11.350;2022-08-20T07:56:59;20.10;99.90
47779;DHT22;33538;48.432;11.350;2022-08-20T07:59:26;20.10;99.90
47779;DHT22;33538;48.432;11.350;2022-08-20T08:01:53;20.10;99.90
47779;DHT22;33538;48.432;11.350;2022-08-20T08:04:20;20.10;99.90
47779;DHT22;33538;48.432;11.350;2022-08-20T08:06:46;20.10;99.90
47779;DHT22;33538;48.432;11.350;2022-08-20T08:09:15;20.10;99.90
47779;DHT22;33538;48.432;11.350;2022-08-20T08:11:45;20.00;99.90
47779;DHT22;33538;48.432;11.350;2022-08-20T08:14:15;20.10;99.90
47779;DHT22;33538;48.432;11.350;2022-08-20T08:16:42;20.10;99.90
47779;DHT22;33538;48.432;11.350;2022-08-20T08:19:10;20.10;99.90
47779;DHT22;33538;48.432;11.350;2022-08-20T08:21:37;20.10;99.90
47779;DHT22;33538;48.432;11.350;2022-08-20T08:24:04;20.10;99.90
47779;DHT22;33538;48.432;11.350;2022-08-20T08:26:32;20.10;99.90
47779;DHT22;33538;48.432;11.350;2022-08-20T08:28:59;20.10;99.90
47779;DHT22;33538;48.432;11.350;2022-08-20T08:31:25;20.10;99.90
47779;DHT22;33538;48.432;11.350;2022-08-20T08:33:53;20.10;99.90
47779;DHT22;33538;48.432;11.350;2022-08-20T08:36:20;20.10;99.90
47779;DHT22;33538;48.432;11.350;2022-08-20T08:38:47;20.10;99.90
47779;DHT22;33538;48.432;11.350;2022-08-20T08:41:17;20.10;99.90
47779;DHT22;33538;48.432;11.350;2022-08-20T08:43:47;20.00;99.90
47779;DHT22;33538;48.432;11.350;2022-08-20T08:46:18;20.10;99.90
47779;DHT22;33538;48.432;11.350;2022-08-20T08:48:47;20.00;99.90
47779;DHT22;33538;48.432;11.350;2022-08-20T08:51:18;20.00;99.90
47779;DHT22;33538;48.432;11.350;2022-08-20T08:53:49;20.10;99.90
47779;DHT22;33538;48.432;11.350;2022-08-20T08:56:17;20.00;99.90
47779;DHT22;33538;48.432;11.350;2022-08-20T08:58:45;20.00;99.90
47779;DHT22;33538;48.432;11.350;2022-08-20T09:01:17;20.10;99.90
47779;DHT22;33538;48.432;11.350;2022-08-20T09:04:04;20.10;99.90
47779;DHT22;33538;48.432;11.350;2022-08-20T09:06:31;20.10;99.90
47779;DHT22;33538;48.432;11.350;2022-08-20T09:08:59;20.00;99.90
47779;DHT22;33538;48.432;11.350;2022-08-20T09:11:28;20.10;99.90
47779;DHT22;33538;48.432;11.350;2022-08-20T09:13:56;20.00;99.90
47779;DHT22;33538;48.432;11.350;2022-08-20T09:16:24;20.10;99.90
47779;DHT22;33538;48.432;11.350;2022-08-20T09:18:55;20.10;99.90
47779;DHT22;33538;48.432;11.350;2022-08-20T09:21:22;20.10;99.90
47779;DHT22;33538;48.432;11.350;2022-08-20T09:23:48;20.10;99.90
47779;DHT22;33538;48.432;11.350;2022-08-20T09:26:15;20.10;99.90
47779;DHT22;33538;48.432;11.350;2022-08-20T09:28:42;20.10;99.90
47779;DHT22;33538;48.432;11.350;2022-08-20T09:31:14;20.10;99.90
47779;DHT22;33538;48.432;11.350;2022-08-20T09:33:43;20.10;99.90
47779;DHT22;33538;48.432;11.350;2022-08-20T09:36:10;20.10;99.90
47779;DHT22;33538;48.432;11.350;2022-08-20T09:38:57;20.10;99.90
47779;DHT22;33538;48.432;11.350;2022-08-20T09:41:24;20.10;99.90
47779;DHT22;33538;48.432;11.350;2022-08-20T09:43:51;20.10;99.90
47779;DHT22;33538;48.432;11.350;2022-08-20T09:46:19;20.10;99.90
47779;DHT22;33538;48.432;11.350;2022-08-20T09:48:53;20.10;99.90
47779;DHT22;33538;48.432;11.350;2022-08-20T09:51:19;20.10;99.90
47779;DHT22;33538;48.432;11.350;2022-08-20T09:53:47;20.20;99.90
47779;DHT22;33538;48.432;11.350;2022-08-20T09:56:14;20.20;99.90
47779;DHT22;33538;48.432;11.350;2022-08-20T09:58:46;20.20;99.90
47779;DHT22;33538;48.432;11.350;2022-08-20T10:01:16;20.20;99.90
47779;DHT22;33538;48.432;11.350;2022-08-20T10:03:45;20.20;99.90
47779;DHT22;33538;48.432;11.350;2022-08-20T10:06:13;20.20;99.90
47779;DHT22;33538;48.432;11.350;2022-08-20T10:08:40;20.20;99.90
47779;DHT22;33538;48.432;11.350;2022-08-20T10:11:07;20.20;99.90
47779;DHT22;33538;48.432;11.350;2022-08-20T10:13:33;20.20;99.90
47779;DHT22;33538;48.432;11.350;2022-08-20T10:16:00;20.20;99.90
47779;DHT22;33538;48.432;11.350;2022-08-20T10:18:27;20.20;99.90
47779;DHT22;33538;48.432;11.350;2022-08-20T10:20:55;20.20;99.90
47779;DHT22;33538;48.432;11.350;2022-08-20T10:23:22;20.20;99.90
47779;DHT22;33538;48.432;11.350;2022-08-20T10:25:48;20.20;99.90
47779;DHT22;33538;48.432;11.350;2022-08-20T10:28:15;20.20;99.90
47779;DHT22;33538;48.432;11.350;2022-08-20T10:30:42;20.20;99.90
47779;DHT22;33538;48.432;11.350;2022-08-20T10:33:09;20.20;99.90
47779;DHT22;33538;48.432;11.350;2022-08-20T10:35:36;20.30;99.90
47779;DHT22;33538;48.432;11.350;2022-08-20T10:38:04;20.20;99.90
47779;DHT22;33538;48.432;11.350;2022-08-20T10:40:30;20.30;99.90
47779;DHT22;33538;48.432;11.350;2022-08-20T10:42:57;20.30;99.90
47779;DHT22;33538;48.432;11.350;2022-08-20T10:45:24;20.30;99.90
47779;DHT22;33538;48.432;11.350;2022-08-20T10:47:51;20.30;99.90
47779;DHT22;33538;48.432;11.350;2022-08-20T10:50:18;20.30;99.90
47779;DHT22;33538;48.432;11.350;2022-08-20T10:52:45;20.30;99.90
47779;DHT22;33538;48.432;11.350;2022-08-20T10:55:13;20.40;99.90
47779;DHT22;33538;48.432;11.350;2022-08-20T10:57:41;20.40;99.90
47779;DHT22;33538;48.432;11.350;2022-08-20T11:00:10;20.40;99.90
47779;DHT22;33538;48.432;11.350;2022-08-20T11:02:37;20.40;99.90
47779;DHT22;33538;48.432;11.350;2022-08-20T11:05:12;20.40;99.90
47779;DHT22;33538;48.432;11.350;2022-08-20T11:07:41;20.40;99.90
47779;DHT22;33538;48.432;11.350;2022-08-20T11:10:27;20.40;99.90
47779;DHT22;33538;48.432;11.350;2022-08-20T11:12:54;20.40;99.90
47779;DHT22;33538;48.432;11.350;2022-08-20T11:15:21;20.40;99.90
47779;DHT22;33538;48.432;11.350;2022-08-20T11:17:48;20.50;99.90
47779;DHT22;33538;48.432;11.350;2022-08-20T11:20:18;20.50;99.90
47779;DHT22;33538;48.432;11.350;2022-08-20T11:22:45;20.50;99.90
47779;DHT22;33538;48.432;11.350;2022-08-20T11:25:13;20.50;99.90
47779;DHT22;33538;48.432;11.350;2022-08-20T11:27:41;20.60;99.70
47779;DHT22;33538;48.432;11.350;2022-08-20T11:30:11;20.60;99.90
47779;DHT22;33538;48.432;11.350;2022-08-20T11:32:38;20.60;99.90
47779;DHT22;33538;48.432;11.350;2022-08-20T11:35:06;20.60;99.90
47779;DHT22;33538;48.432;11.350;2022-08-20T11:37:55;20.70;99.80
47779;DHT22;33538;48.432;11.350;2022-08-20T11:40:23;20.60;99.90
47779;DHT22;33538;48.432;11.350;2022-08-20T11:42:50;20.60;99.70
47779;DHT22;33538;48.432;11.350;2022-08-20T11:45:37;20.70;99.70
47779;DHT22;33538;48.432;11.350;2022-08-20T11:48:04;20.70;99.80
47779;DHT22;33538;48.432;11.350;2022-08-20T11:50:31;20.70;99.50
47779;DHT22;33538;48.432;11.350;2022-08-20T11:52:59;20.70;99.20
47779;DHT22;33538;48.432;11.350;2022-08-20T11:55:27;20.70;99.00
47779;DHT22;33538;48.432;11.350;2022-08-20T11:57:56;20.80;99.10
47779;DHT22;33538;48.432;11.350;2022-08-20T12:00:27;20.80;99.00
47779;DHT22;33538;48.432;11.350;2022-08-20T12:02:59;20.80;99.10
47779;DHT22;33538;48.432;11.350;2022-08-20T12:05:27;20.80;98.90
47779;DHT22;33538;48.432;11.350;2022-08-20T12:07:53;20.80;98.70
47779;DHT22;33538;48.432;11.350;2022-08-20T12:10:22;20.90;98.60
47779;DHT22;33538;48.432;11.350;2022-08-20T12:12:48;20.80;98.50
47779;DHT22;33538;48.432;11.350;2022-08-20T12:15:15;20.90;98.50
47779;DHT22;33538;48.432;11.350;2022-08-20T12:17:42;20.90;98.40
47779;DHT22;33538;48.432;11.350;2022-08-20T12:20:11;20.90;98.20
47779;DHT22;33538;48.432;11.350;2022-08-20T12:22:38;20.90;98.20
47779;DHT22;33538;48.432;11.350;2022-08-20T12:25:07;20.90;98.20
47779;DHT22;33538;48.432;11.350;2022-08-20T12:27:36;20.90;98.10
47779;DHT22;33538;48.432;11.350;2022-08-20T12:30:06;21.00;98.10
47779;DHT22;33538;48.432;11.350;2022-08-20T12:32:34;21.00;98.20
47779;DHT22;33538;48.432;11.350;2022-08-20T12:35:01;21.00;98.10
47779;DHT22;33538;48.432;11.350;2022-08-20T12:37:29;21.00;98.20
47779;DHT22;33538;48.432;11.350;2022-08-20T12:39:59;21.00;98.00
47779;DHT22;33538;48.432;11.350;2022-08-20T12:42:27;21.10;98.20
47779;DHT22;33538;48.432;11.350;2022-08-20T12:44:55;21.00;98.30
47779;DHT22;33538;48.432;11.350;2022-08-20T12:47:28;21.10;98.30
47779;DHT22;33538;48.432;11.350;2022-08-20T12:49:58;21.00;98.40
47779;DHT22;33538;48.432;11.350;2022-08-20T12:52:25;21.10;98.50
47779;DHT22;33538;48.432;11.350;2022-08-20T12:54:53;21.10;98.60
47779;DHT22;33538;48.432;11.350;2022-08-20T12:57:26;21.10;98.70
47779;DHT22;33538;48.432;11.350;2022-08-20T12:59:55;21.10;98.80
47779;DHT22;33538;48.432;11.350;2022-08-20T13:02:24;21.10;98.90
47779;DHT22;33538;48.432;11.350;2022-08-20T13:04:51;21.10;99.10
47779;DHT22;33538;48.432;11.350;2022-08-20T13:07:18;21.10;99.00
47779;DHT22;33538;48.432;11.350;2022-08-20T13:09:46;21.10;98.90
47779;DHT22;33538;48.432;11.350;2022-08-20T13:12:13;21.10;99.60
47779;DHT22;33538;48.432;11.350;2022-08-20T13:14:41;21.10;99.10
47779;DHT22;33538;48.432;11.350;2022-08-20T13:17:09;21.10;99.10
47779;DHT22;33538;48.432;11.350;2022-08-20T13:19:38;21.10;99.30
47779;DHT22;33538;48.432;11.350;2022-08-20T13:22:05;21.10;99.30
47779;DHT22;33538;48.432;11.350;2022-08-20T13:24:31;21.20;99.20
47779;DHT22;33538;48.432;11.350;2022-08-20T13:27:06;21.20;99.60
47779;DHT22;33538;48.432;11.350;2022-08-20T13:29:34;21.20;99.80
47779;DHT22;33538;48.432;11.350;2022-08-20T13:32:02;21.20;99.80
47779;DHT22;33538;48.432;11.350;2022-08-20T13:34:30;21.20;99.60
47779;DHT22;33538;48.432;11.350;2022-08-20T13:36:57;21.20;99.80
47779;DHT22;33538;48.432;11.350;2022-08-20T13:39:24;21.20;99.80
47779;DHT22;33538;48.432;11.350;2022-08-20T13:41:50;21.20;99.80
47779;DHT22;33538;48.432;11.350;2022-08-20T13:44:17;21.20;99.90
47779;DHT22;33538;48.432;11.350;2022-08-20T13:46:44;21.20;99.80
47779;DHT22;33538;48.432;11.350;2022-08-20T13:49:11;21.20;99.90
47779;DHT22;33538;48.432;11.350;2022-08-20T13:51:39;21.20;99.90
47779;DHT22;33538;48.432;11.350;2022-08-20T13:54:06;21.20;99.90
47779;DHT22;33538;48.432;11.350;2022-08-20T13:56:36;21.20;99.90
47779;DHT22;33538;48.432;11.350;2022-08-20T13:59:03;21.20;99.90
47779;DHT22;33538;48.432;11.350;2022-08-20T14:01:30;21.20;99.90
47779;DHT22;33538;48.432;11.350;2022-08-20T14:03:57;21.20;99.90
47779;DHT22;33538;48.432;11.350;2022-08-20T14:06:25;21.20;99.90
47779;DHT22;33538;48.432;11.350;2022-08-20T14:08:53;21.20;99.90
47779;DHT22;33538;48.432;11.350;2022-08-20T14:11:20;21.30;99.90
47779;DHT22;33538;48.432;11.350;2022-08-20T14:13:47;21.30;99.90
47779;DHT22;33538;48.432;11.350;2022-08-20T14:16:14;21.30;99.90
47779;DHT22;33538;48.432;11.350;2022-08-20T14:18:53;21.30;99.90
47779;DHT22;33538;48.432;11.350;2022-08-20T14:21:20;21.20;99.90
47779;DHT22;33538;48.432;11.350;2022-08-20T14:31:12;20.60;99.90
47779;DHT22;33538;48.432;11.350;2022-08-20T14:33:39;20.70;99.90
47779;DHT22;33538;48.432;11.350;2022-08-20T14:36:10;20.70;99.90
47779;DHT22;33538;48.432;11.350;2022-08-20T14:38:37;20.70;99.90
47779;DHT22;33538;48.432;11.350;2022-08-20T14:41:03;20.70;99.90
47779;DHT22;33538;48.432;11.350;2022-08-20T14:43:30;20.70;99.90
47779;DHT22;33538;48.432;11.350;2022-08-20T14:45:57;20.70;99.90
47779;DHT22;33538;48.432;11.350;2022-08-20T14:48:25;20.70;99.90
47779;DHT22;33538;48.432;11.350;2022-08-20T14:50:52;20.60;99.90
47779;DHT22;33538;48.432;11.350;2022-08-20T14:53:19;20.60;99.90
47779;DHT22;33538;48.432;11.350;2022-08-20T14:55:46;20.50;99.90
47779;DHT22;33538;48.432;11.350;2022-08-20T14:58:13;20.50;99.90
47779;DHT22;33538;48.432;11.350;2022-08-20T15:00:41;20.50;99.90
47779;DHT22;33538;48.432;11.350;2022-08-20T15:03:08;20.50;99.90
47779;DHT22;33538;48.432;11.350;2022-08-20T15:05:37;20.40;99.90
47779;DHT22;33538;48.432;11.350;2022-08-20T15:08:06;20.50;99.90
47779;DHT22;33538;48.432;11.350;2022-08-20T15:10:33;20.40;99.90
47779;DHT22;33538;48.432;11.350;2022-08-20T15:13:00;20.40;99.90
47779;DHT22;33538;48.432;11.350;2022-08-20T15:15:27;20.40;99.90
47779;DHT22;33538;48.432;11.350;2022-08-20T15:17:55;20.40;99.90
47779;DHT22;33538;48.432;11.350;2022-08-20T15:20:26;20.40;99.90
47779;DHT22;33538;48.432;11.350;2022-08-20T15:22:54;20.40;99.90
47779;DHT22;33538;48.432;11.350;2022-08-20T15:25:23;20.30;99.90
47779;DHT22;33538;48.432;11.350;2022-08-20T15:27:52;20.30;99.90
47779;DHT22;33538;48.432;11.350;2022-08-20T15:30:24;20.30;99.90